Time;durP1;ratioP1;P1;durP2;ratioP2;P2;SDS_P1;SDS_P2;PMS_P1;PMS_P2;Temp;Humidity;BMP_temperature;BMP_pressure;BME280_temperature;BME280_humidity;BME280_pressure;Samples;Min_cycle;Max_cycle;Signal;HPM_P1;HPM_P2
2022/03/30 00:01:04;;;;;;;25.87;17.60;;;12.40;94.80;;;;;;5033127;28;20174;-67
2022/03/30 00:03:29;;;;;;;25.80;17.93;;;12.30;94.90;;;;;;5031896;28;20184;-67
2022/03/30 00:05:55;;;;;;;24.70;16.43;;;12.30;95.40;;;;;;5031080;28;20642;-69
2022/03/30 00:08:21;;;;;;;27.10;20.47;;;12.30;95.30;;;;;;5032404;28;20175;-66
2022/03/30 00:10:47;;;;;;;22.63;16.83;;;12.50;95.70;;;;;;5032468;28;20413;-67
2022/03/30 00:13:12;;;;;;;24.17;18.17;;;12.60;95.30;;;;;;5032180;28;20711;-67
2022/03/30 00:15:38;;;;;;;24.43;17.90;;;12.60;95.00;;;;;;5032725;28;20179;-67
2022/03/30 00:18:04;;;;;;;25.70;17.63;;;12.70;94.90;;;;;;5032457;28;20291;-67
2022/03/30 00:20:29;;;;;;;22.20;15.67;;;12.80;95.00;;;;;;5031149;28;20180;-67
2022/03/30 00:22:55;;;;;;;22.70;17.20;;;12.80;95.10;;;;;;5032265;28;20623;-67
2022/03/30 00:25:20;;;;;;;23.00;16.83;;;12.90;95.20;;;;;;5032604;28;20184;-67
2022/03/30 00:27:46;;;;;;;18.00;15.27;;;12.90;95.10;;;;;;5031270;28;20172;-67
2022/03/30 00:30:18;;;;;;;22.70;16.60;;;13.10;95.30;;;;;;5032458;28;20520;-67
2022/03/30 00:32:44;;;;;;;22.87;16.97;;;13.00;95.30;;;;;;5034787;28;20459;-68
2022/03/30 00:35:10;;;;;;;20.20;16.70;;;13.10;95.40;;;;;;5032204;28;20878;-67
2022/03/30 00:37:37;;;;;;;21.37;16.03;;;13.10;95.60;;;;;;5031808;28;20410;-68
2022/03/30 00:40:06;;;;;;;22.60;17.17;;;13.10;95.70;;;;;;5031912;28;20457;-67
2022/03/30 00:42:31;;;;;;;20.57;16.90;;;13.10;95.80;;;;;;5032165;28;20527;-68
2022/03/30 00:44:57;;;;;;;23.93;17.77;;;13.20;95.70;;;;;;5032375;28;20493;-68
2022/03/30 00:47:26;;;;;;;20.90;16.57;;;13.10;95.60;;;;;;5032414;28;20180;-67
2022/03/30 00:49:53;;;;;;;26.00;17.60;;;13.20;95.60;;;;;;5031603;28;20215;-67
2022/03/30 00:52:20;;;;;;;19.30;15.43;;;13.20;95.70;;;;;;5032155;28;20422;-67
2022/03/30 00:54:49;;;;;;;17.73;15.30;;;13.20;95.80;;;;;;5032532;28;20481;-67
2022/03/30 00:57:16;;;;;;;23.40;16.97;;;13.20;95.90;;;;;;5032543;28;20460;-67
2022/03/30 00:59:42;;;;;;;20.70;15.60;;;13.20;95.90;;;;;;5032152;28;20546;-67
2022/03/30 01:02:09;;;;;;;20.40;16.43;;;13.30;95.60;;;;;;5032082;28;20524;-67
2022/03/30 01:04:35;;;;;;;18.23;14.67;;;13.30;95.30;;;;;;5031916;28;20193;-67
2022/03/30 01:07:01;;;;;;;21.20;14.77;;;13.40;95.50;;;;;;5032137;28;20468;-67
2022/03/30 01:09:28;;;;;;;20.30;14.90;;;13.50;96.00;;;;;;5032155;28;20415;-67
2022/03/30 01:11:55;;;;;;;17.70;15.10;;;13.60;96.00;;;;;;5032295;28;20866;-67
2022/03/30 01:14:22;;;;;;;23.60;16.00;;;13.50;96.50;;;;;;5030726;28;20487;-66
2022/03/30 01:16:47;;;;;;;19.30;16.03;;;13.50;96.60;;;;;;5032062;28;20415;-66
2022/03/30 01:19:14;;;;;;;26.47;17.23;;;13.50;97.40;;;;;;5030488;28;20594;-67
2022/03/30 01:21:41;;;;;;;28.73;16.83;;;13.40;98.00;;;;;;5031771;28;20182;-67
2022/03/30 01:24:08;;;;;;;18.17;15.53;;;13.30;98.40;;;;;;5032747;28;20444;-67
2022/03/30 01:26:35;;;;;;;17.63;15.10;;;13.20;98.10;;;;;;5035712;28;20450;-67
2022/03/30 01:29:01;;;;;;;21.30;15.30;;;13.10;98.70;;;;;;5035424;28;20402;-67
2022/03/30 01:34:11;;;;;;;21.87;17.27;;;13.10;98.50;;;;;;5035334;28;20824;-68
2022/03/30 01:36:37;;;;;;;24.87;17.63;;;13.10;98.70;;;;;;5035749;28;20415;-67
2022/03/30 01:39:04;;;;;;;22.83;16.73;;;13.00;99.30;;;;;;5035122;28;20984;-66
2022/03/30 01:41:30;;;;;;;26.33;16.70;;;13.00;99.60;;;;;;5035364;28;20418;-67
2022/03/30 01:43:56;;;;;;;22.50;17.90;;;13.00;99.60;;;;;;5035044;28;20425;-66
2022/03/30 01:46:22;;;;;;;20.40;17.50;;;12.90;99.30;;;;;;5035095;28;20483;-67
2022/03/30 01:48:48;;;;;;;22.90;16.90;;;12.60;98.40;;;;;;5034633;28;20422;-67
2022/03/30 01:51:14;;;;;;;23.03;16.13;;;12.80;98.00;;;;;;5034777;28;20411;-66
2022/03/30 01:53:40;;;;;;;22.70;17.90;;;13.00;98.00;;;;;;5034404;28;20500;-67
2022/03/30 01:56:06;;;;;;;19.50;15.80;;;13.30;98.10;;;;;;5035176;28;20426;-66
2022/03/30 01:58:32;;;;;;;18.83;16.30;;;13.30;98.20;;;;;;5034816;28;20775;-66
2022/03/30 02:00:57;;;;;;;23.40;16.17;;;13.30;97.90;;;;;;5035180;28;20165;-67
2022/03/30 02:03:25;;;;;;;19.03;14.83;;;13.40;98.00;;;;;;5034712;28;20684;-67
2022/03/30 02:05:52;;;;;;;18.60;16.00;;;13.50;97.60;;;;;;5034737;28;20543;-67
2022/03/30 02:08:18;;;;;;;19.50;15.80;;;13.60;96.70;;;;;;5034363;28;20843;-66
2022/03/30 02:10:44;;;;;;;21.17;16.90;;;13.50;96.90;;;;;;5034750;28;20416;-67
2022/03/30 02:13:10;;;;;;;26.37;17.13;;;13.50;97.30;;;;;;5034802;28;20198;-67
2022/03/30 02:15:36;;;;;;;25.70;17.87;;;13.30;97.80;;;;;;5034464;28;20477;-67
2022/03/30 02:18:05;;;;;;;21.77;16.90;;;13.20;98.50;;;;;;5034390;28;20219;-68
2022/03/30 02:20:31;;;;;;;20.97;17.23;;;13.20;99.20;;;;;;5033497;28;20189;-67
2022/03/30 02:22:57;;;;;;;24.20;16.93;;;13.10;98.80;;;;;;5034240;28;20449;-67
2022/03/30 02:25:23;;;;;;;21.13;17.00;;;12.90;98.90;;;;;;5034906;28;20457;-67
2022/03/30 02:27:48;;;;;;;21.17;17.13;;;13.00;99.10;;;;;;5034971;28;20632;-67
2022/03/30 02:30:14;;;;;;;19.30;16.30;;;13.00;99.40;;;;;;5034275;28;20166;-67
2022/03/30 02:32:42;;;;;;;22.67;17.30;;;13.00;99.50;;;;;;5034519;28;20199;-67
2022/03/30 02:35:08;;;;;;;23.43;16.77;;;13.00;99.60;;;;;;5033800;28;20487;-67
2022/03/30 02:37:34;;;;;;;20.33;17.00;;;13.00;99.90;;;;;;5035252;28;20784;-67
2022/03/30 02:40:00;;;;;;;20.30;16.50;;;13.00;99.90;;;;;;5034055;28;20443;-67
2022/03/30 02:42:26;;;;;;;22.90;18.00;;;12.90;99.90;;;;;;5034249;28;20187;-67
2022/03/30 02:44:51;;;;;;;21.30;17.40;;;13.00;99.90;;;;;;5034185;28;20907;-67
2022/03/30 02:48:17;;;;;;;19.17;15.67;;;13.00;99.90;;;;;;5033955;28;20211;-67
2022/03/30 02:50:03;;;;;;;21.63;17.50;;;12.90;99.90;;;;;;5033265;28;20271;-67
2022/03/30 02:52:29;;;;;;;22.00;16.27;;;12.90;99.90;;;;;;5032467;28;20432;-67
2022/03/30 02:54:55;;;;;;;17.40;15.30;;;12.90;99.70;;;;;;5033869;28;20471;-67
2022/03/30 02:57:20;;;;;;;19.63;16.10;;;13.00;99.90;;;;;;5034559;28;20177;-67
2022/03/30 02:59:46;;;;;;;19.10;16.37;;;12.90;99.90;;;;;;5032844;28;20195;-68
2022/03/30 03:02:11;;;;;;;22.90;17.30;;;12.90;99.80;;;;;;5034283;28;20197;-66
2022/03/30 03:04:38;;;;;;;21.03;17.27;;;12.90;99.80;;;;;;5033333;28;20173;-68
2022/03/30 03:07:04;;;;;;;22.37;17.03;;;12.90;99.90;;;;;;5033563;28;20173;-67
2022/03/30 03:09:30;;;;;;;20.30;15.87;;;12.90;99.90;;;;;;5033575;28;20410;-67
2022/03/30 03:11:56;;;;;;;28.43;17.00;;;12.80;99.90;;;;;;5033751;28;20803;-67
2022/03/30 03:14:21;;;;;;;25.83;15.73;;;12.70;99.90;;;;;;5033924;28;20488;-67
2022/03/30 03:16:47;;;;;;;20.70;15.90;;;12.70;99.90;;;;;;5033630;28;20595;-67
2022/03/30 03:19:12;;;;;;;19.23;15.93;;;12.80;99.90;;;;;;5032342;28;20206;-68
2022/03/30 03:21:38;;;;;;;20.77;16.50;;;12.90;99.90;;;;;;5033365;28;20165;-68
2022/03/30 03:24:04;;;;;;;19.70;14.87;;;13.00;99.80;;;;;;5033119;28;20242;-67
2022/03/30 03:26:30;;;;;;;23.17;15.27;;;12.90;99.30;;;;;;5033443;28;20180;-67
2022/03/30 03:28:56;;;;;;;21.30;15.90;;;12.80;99.40;;;;;;5033495;28;20608;-67
2022/03/30 03:31:21;;;;;;;23.80;15.83;;;12.80;99.70;;;;;;5032208;28;20181;-68
2022/03/30 03:33:47;;;;;;;20.77;16.50;;;12.90;99.60;;;;;;5032926;28;20210;-67
2022/03/30 03:36:13;;;;;;;18.87;14.83;;;12.90;99.40;;;;;;5032643;28;20663;-67
2022/03/30 03:38:38;;;;;;;18.30;14.77;;;12.90;99.40;;;;;;5032982;28;20292;-66
2022/03/30 03:41:05;;;;;;;23.87;16.47;;;13.00;99.40;;;;;;5032975;28;20496;-67
2022/03/30 03:43:31;;;;;;;25.73;16.40;;;13.00;99.10;;;;;;5032821;28;20192;-67
2022/03/30 03:45:56;;;;;;;24.67;15.50;;;13.10;98.90;;;;;;5033370;28;20407;-67
2022/03/30 03:48:22;;;;;;;23.60;18.00;;;13.10;98.60;;;;;;5032639;28;20172;-67
2022/03/30 03:50:47;;;;;;;23.10;16.60;;;12.90;98.20;;;;;;5032340;28;20182;-67
2022/03/30 03:53:13;;;;;;;27.40;18.57;;;13.00;98.00;;;;;;5033094;28;20201;-66
2022/03/30 03:55:39;;;;;;;22.63;14.97;;;13.20;97.90;;;;;;5032809;28;20261;-67
2022/03/30 03:58:06;;;;;;;20.80;17.10;;;13.30;97.80;;;;;;5032963;28;20541;-67
2022/03/30 04:00:34;;;;;;;20.40;16.80;;;13.30;97.70;;;;;;5032719;28;20173;-67
2022/03/30 04:03:00;;;;;;;19.97;15.97;;;13.30;97.50;;;;;;5032551;28;20523;-67
2022/03/30 04:05:26;;;;;;;22.90;17.03;;;13.30;98.20;;;;;;5032429;28;20440;-67
2022/03/30 04:07:52;;;;;;;20.43;15.97;;;13.20;98.20;;;;;;5032610;28;20163;-67
2022/03/30 04:10:18;;;;;;;20.20;15.53;;;13.40;98.00;;;;;;5032895;28;20751;-67
2022/03/30 04:12:43;;;;;;;19.73;17.07;;;13.30;99.40;;;;;;5032575;28;20694;-67
2022/03/30 04:15:09;;;;;;;20.60;16.10;;;13.40;99.50;;;;;;5032763;28;20220;-66
2022/03/30 04:17:45;;;;;;;22.10;16.70;;;13.20;99.70;;;;;;5032830;28;20663;-66
2022/03/30 04:20:13;;;;;;;18.00;15.57;;;13.10;99.90;;;;;;5031103;28;20478;-66
2022/03/30 04:22:39;;;;;;;21.10;15.80;;;13.20;99.90;;;;;;5056592;23;20483;-67
2022/03/30 04:25:05;;;;;;;25.87;16.63;;;13.20;99.90;;;;;;5030002;28;20788;-67
2022/03/30 04:27:31;;;;;;;23.90;16.50;;;13.20;99.90;;;;;;5029955;28;20397;-68
2022/03/30 04:29:57;;;;;;;23.57;16.77;;;13.10;99.90;;;;;;5029647;28;20992;-68
2022/03/30 04:32:23;;;;;;;21.27;18.67;;;13.00;99.90;;;;;;5028445;28;20174;-67
2022/03/30 04:34:48;;;;;;;16.20;13.70;;;13.00;99.90;;;;;;5031865;28;20171;-67
2022/03/30 04:37:14;;;;;;;22.67;18.40;;;13.10;99.90;;;;;;5033136;28;20538;-69
2022/03/30 04:39:40;;;;;;;21.47;16.80;;;13.20;99.90;;;;;;5031901;28;20216;-68
2022/03/30 04:42:06;;;;;;;22.77;17.20;;;13.20;99.90;;;;;;5032077;28;20266;-68
2022/03/30 04:44:31;;;;;;;20.17;14.53;;;13.30;99.90;;;;;;5032359;28;20184;-69
2022/03/30 04:46:57;;;;;;;30.53;17.63;;;13.30;99.90;;;;;;5031859;28;20406;-69
2022/03/30 04:49:22;;;;;;;25.30;15.40;;;13.30;99.90;;;;;;5031480;28;20203;-68
2022/03/30 04:51:48;;;;;;;28.80;16.60;;;13.20;99.90;;;;;;5032330;28;20166;-68
2022/03/30 04:54:15;;;;;;;20.80;13.50;;;13.10;99.90;;;;;;5031975;28;20220;-68
2022/03/30 04:56:41;;;;;;;23.20;13.70;;;13.20;99.90;;;;;;5047514;28;20419;-68
2022/03/30 04:59:07;;;;;;;20.53;12.80;;;13.20;99.90;;;;;;5033067;28;20453;-68
2022/03/30 05:01:32;;;;;;;23.43;13.90;;;12.90;99.90;;;;;;5035644;28;20582;-68
2022/03/30 05:03:58;;;;;;;22.20;14.80;;;12.90;99.90;;;;;;5035518;28;20185;-68
2022/03/30 05:06:23;;;;;;;24.63;13.50;;;12.90;99.90;;;;;;5035254;28;20268;-69
2022/03/30 05:08:49;;;;;;;22.77;13.50;;;13.00;99.90;;;;;;5035532;28;20513;-68
2022/03/30 05:11:14;;;;;;;24.43;14.97;;;13.10;99.90;;;;;;5035566;28;20210;-68
2022/03/30 05:13:40;;;;;;;21.63;14.20;;;12.90;99.90;;;;;;5034711;28;20267;-67
2022/03/30 05:16:06;;;;;;;28.47;15.60;;;12.90;99.90;;;;;;5034887;28;20176;-68
2022/03/30 05:18:31;;;;;;;18.83;12.63;;;12.80;99.90;;;;;;5033477;28;20278;-70
2022/03/30 05:20:57;;;;;;;24.40;14.83;;;12.70;99.90;;;;;;5033541;28;20180;-67
2022/03/30 05:23:22;;;;;;;25.70;14.60;;;12.60;99.90;;;;;;5036138;28;20218;-68
2022/03/30 05:25:48;;;;;;;25.20;14.53;;;12.70;99.90;;;;;;5035577;28;20232;-69
2022/03/30 05:28:13;;;;;;;20.40;13.50;;;12.50;99.90;;;;;;5035479;28;20201;-68
2022/03/30 05:30:39;;;;;;;20.40;14.17;;;12.50;99.90;;;;;;5035152;28;20171;-68
2022/03/30 05:33:05;;;;;;;19.37;13.90;;;12.50;99.90;;;;;;5035122;28;20181;-68
2022/03/30 05:35:30;;;;;;;23.10;13.47;;;12.60;99.90;;;;;;5034991;28;20697;-68
2022/03/30 05:37:56;;;;;;;21.83;14.80;;;12.60;99.90;;;;;;5035316;28;20170;-67
2022/03/30 05:40:21;;;;;;;20.23;14.90;;;12.60;99.90;;;;;;5035291;28;20221;-68
2022/03/30 05:42:47;;;;;;;21.00;15.53;;;12.60;99.90;;;;;;5035052;28;20196;-68
2022/03/30 05:45:13;;;;;;;24.77;15.33;;;12.50;99.90;;;;;;5035193;28;20169;-68
2022/03/30 05:47:38;;;;;;;24.93;15.30;;;12.50;99.90;;;;;;5034827;28;20551;-68
2022/03/30 05:50:07;;;;;;;22.70;15.47;;;12.40;99.90;;;;;;5034791;28;20654;-67
2022/03/30 05:52:33;;;;;;;23.93;15.90;;;12.40;99.90;;;;;;5035211;28;20187;-67
2022/03/30 05:54:58;;;;;;;21.43;15.63;;;12.50;99.90;;;;;;5035177;28;20704;-68
2022/03/30 05:57:24;;;;;;;21.73;14.90;;;12.60;99.90;;;;;;5035782;28;20173;-68
2022/03/30 05:59:50;;;;;;;24.87;14.67;;;12.60;99.90;;;;;;5034882;28;20191;-68
2022/03/30 06:02:16;;;;;;;29.83;17.90;;;12.60;99.90;;;;;;5034732;28;20508;-67
2022/03/30 06:04:42;;;;;;;25.53;16.17;;;12.50;99.90;;;;;;5034393;28;20179;-68
2022/03/30 06:07:08;;;;;;;23.13;16.83;;;12.60;99.90;;;;;;5035050;28;20418;-68
2022/03/30 06:09:34;;;;;;;24.80;15.80;;;12.50;99.90;;;;;;5034072;28;20406;-67
2022/03/30 06:12:01;;;;;;;22.37;14.20;;;12.60;99.90;;;;;;5035711;28;20416;-67
2022/03/30 06:14:26;;;;;;;26.40;15.83;;;12.60;99.90;;;;;;5037060;28;20480;-68
2022/03/30 06:16:52;;;;;;;23.37;14.40;;;12.50;99.90;;;;;;5035569;28;20414;-68
2022/03/30 06:19:18;;;;;;;26.03;14.87;;;12.60;99.90;;;;;;5033921;28;20194;-68
2022/03/30 06:21:45;;;;;;;23.30;16.90;;;12.60;99.90;;;;;;5034856;28;20176;-69
2022/03/30 06:24:11;;;;;;;23.50;16.03;;;12.60;99.90;;;;;;5031275;28;20207;-69
2022/03/30 06:26:41;;;;;;;24.07;16.67;;;12.60;99.90;;;;;;5026274;28;20413;-68
2022/03/30 06:29:07;;;;;;;24.53;15.17;;;12.60;99.90;;;;;;5034417;28;20422;-68
2022/03/30 06:31:33;;;;;;;26.47;16.87;;;12.50;99.90;;;;;;5034425;28;20412;-68
2022/03/30 06:33:59;;;;;;;24.40;16.27;;;12.40;99.90;;;;;;5034450;28;20804;-68
2022/03/30 06:36:24;;;;;;;22.50;15.23;;;12.30;99.90;;;;;;5033656;28;20417;-68
2022/03/30 06:38:51;;;;;;;20.33;16.27;;;12.30;99.90;;;;;;5033919;28;20235;-68
2022/03/30 06:41:19;;;;;;;24.50;16.73;;;12.30;99.90;;;;;;5034280;28;20617;-69
2022/03/30 06:43:46;;;;;;;21.70;13.67;;;12.30;99.90;;;;;;5034174;28;20928;-68
2022/03/30 06:46:16;;;;;;;26.20;15.50;;;12.30;99.90;;;;;;5033980;28;20406;-67
2022/03/30 06:48:42;;;;;;;24.10;14.73;;;12.30;99.90;;;;;;5034044;28;20916;-69
2022/03/30 06:51:08;;;;;;;20.23;15.20;;;12.20;99.90;;;;;;5033596;28;20444;-68
2022/03/30 06:53:34;;;;;;;24.77;16.13;;;12.20;99.90;;;;;;5034057;28;20434;-68
2022/03/30 06:56:00;;;;;;;22.90;15.10;;;12.10;99.90;;;;;;5033695;28;20414;-68
2022/03/30 06:58:26;;;;;;;19.63;14.33;;;12.20;99.90;;;;;;5033909;28;20201;-68
2022/03/30 07:00:53;;;;;;;21.17;15.37;;;12.10;99.90;;;;;;5034083;28;20194;-68
2022/03/30 07:03:19;;;;;;;19.70;13.80;;;12.10;99.90;;;;;;5033645;28;20240;-67
2022/03/30 07:05:45;;;;;;;27.13;16.30;;;12.10;99.90;;;;;;5033640;28;20410;-68
2022/03/30 07:10:55;;;;;;;23.33;16.50;;;12.00;99.90;;;;;;5033563;28;20636;-68
2022/03/30 07:13:22;;;;;;;27.37;18.33;;;12.00;99.90;;;;;;5033699;28;20426;-68
2022/03/30 07:15:48;;;;;;;23.57;17.10;;;11.90;99.90;;;;;;5033873;28;20256;-68
2022/03/30 07:18:13;;;;;;;24.43;16.40;;;11.80;99.90;;;;;;5033458;28;20500;-68
2022/03/30 07:20:39;;;;;;;25.77;17.93;;;11.70;99.90;;;;;;5032320;28;20457;-68
2022/03/30 07:23:05;;;;;;;29.23;18.77;;;11.80;99.90;;;;;;5032714;28;20307;-68
2022/03/30 07:25:31;;;;;;;33.23;20.20;;;11.80;99.90;;;;;;5033547;28;20398;-68
2022/03/30 07:27:59;;;;;;;27.10;19.90;;;11.90;99.90;;;;;;5033567;28;20409;-68
2022/03/30 07:30:26;;;;;;;21.93;17.00;;;12.10;99.90;;;;;;5033522;28;20410;-68
2022/03/30 07:32:53;;;;;;;26.93;16.77;;;12.20;99.90;;;;;;5033141;28;20518;-68
2022/03/30 07:35:22;;;;;;;22.43;16.27;;;12.40;99.90;;;;;;5032988;28;20409;-68
2022/03/30 07:37:48;;;;;;;26.63;18.27;;;12.40;99.90;;;;;;5033521;28;20410;-68
2022/03/30 07:40:17;;;;;;;28.03;16.87;;;12.40;99.90;;;;;;5032053;28;20454;-68
2022/03/30 07:42:44;;;;;;;27.13;18.50;;;12.40;99.90;;;;;;5032979;28;20453;-68
2022/03/30 07:45:10;;;;;;;27.20;17.77;;;12.50;99.90;;;;;;5033169;28;20507;-67
2022/03/30 07:47:36;;;;;;;29.13;17.80;;;12.70;99.90;;;;;;5033194;28;20438;-68
2022/03/30 07:50:02;;;;;;;27.90;16.10;;;12.60;99.90;;;;;;5032700;28;20911;-67
2022/03/30 07:52:28;;;;;;;31.90;19.90;;;12.60;99.90;;;;;;5032833;28;20203;-68
2022/03/30 07:54:54;;;;;;;22.97;17.57;;;12.60;99.90;;;;;;5033253;28;20411;-67
2022/03/30 07:57:26;;;;;;;24.60;17.93;;;12.40;99.90;;;;;;5033536;28;20263;-68
2022/03/30 07:59:59;;;;;;;24.47;16.90;;;12.40;99.90;;;;;;5033353;28;20466;-68
2022/03/30 08:02:26;;;;;;;28.53;16.13;;;12.60;99.90;;;;;;5032726;28;20902;-67
2022/03/30 08:04:52;;;;;;;25.53;16.97;;;12.70;99.90;;;;;;5032504;28;20394;-68
2022/03/30 08:07:21;;;;;;;24.87;18.23;;;12.70;99.90;;;;;;5031660;28;20424;-67
2022/03/30 08:09:47;;;;;;;22.00;16.53;;;12.70;99.90;;;;;;5033023;28;21005;-68
2022/03/30 08:12:17;;;;;;;27.13;19.30;;;12.70;99.90;;;;;;5032531;28;20746;-68
2022/03/30 08:14:43;;;;;;;29.43;18.60;;;12.70;99.90;;;;;;5032893;28;20417;-67
2022/03/30 08:17:09;;;;;;;27.10;16.40;;;12.80;99.90;;;;;;5032816;28;20971;-67
2022/03/30 08:19:35;;;;;;;25.23;18.40;;;13.00;99.90;;;;;;5032323;28;20494;-67
2022/03/30 08:24:46;;;;;;;33.30;17.10;;;12.90;99.90;;;;;;5032882;28;20201;-68
2022/03/30 08:27:15;;;;;;;22.07;15.53;;;12.90;99.90;;;;;;5032834;28;20452;-68
2022/03/30 08:29:41;;;;;;;22.93;16.10;;;13.00;99.90;;;;;;5032848;28;20413;-68
2022/03/30 08:32:06;;;;;;;23.47;16.13;;;13.10;99.90;;;;;;5032671;28;20416;-67
2022/03/30 08:34:32;;;;;;;24.40;15.30;;;12.90;99.90;;;;;;5036042;28;20687;-68
2022/03/30 08:36:58;;;;;;;24.13;17.10;;;12.90;99.90;;;;;;5037051;28;20624;-68
2022/03/30 08:39:24;;;;;;;25.30;13.70;;;12.90;99.90;;;;;;5036378;28;20290;-67
2022/03/30 08:41:50;;;;;;;26.20;15.30;;;12.60;99.90;;;;;;5036523;28;20508;-67
2022/03/30 08:44:17;;;;;;;20.07;14.40;;;12.70;99.90;;;;;;5035138;28;20666;-67
2022/03/30 08:46:45;;;;;;;24.93;14.47;;;12.80;99.90;;;;;;5035972;28;20167;-67
2022/03/30 08:49:12;;;;;;;21.77;14.20;;;13.00;99.90;;;;;;5036660;28;20493;-67
2022/03/30 08:51:39;;;;;;;21.63;14.33;;;13.20;99.90;;;;;;5036525;28;20904;-68
2022/03/30 08:54:08;;;;;;;18.73;12.77;;;13.30;99.90;;;;;;5035985;28;20527;-68
2022/03/30 08:56:36;;;;;;;24.80;13.17;;;13.20;99.90;;;;;;5036295;28;20493;-68
2022/03/30 08:59:04;;;;;;;17.70;11.63;;;13.20;99.90;;;;;;5036054;28;20453;-68
2022/03/30 09:01:34;;;;;;;22.30;12.47;;;13.30;99.90;;;;;;5036528;28;20890;-69
2022/03/30 09:04:01;;;;;;;22.97;14.90;;;13.40;99.90;;;;;;5036120;28;20512;-66
2022/03/30 09:06:37;;;;;;;24.03;13.57;;;13.30;99.90;;;;;;5036119;28;20408;-68
2022/03/30 09:09:04;;;;;;;21.80;12.53;;;13.10;99.90;;;;;;5036758;28;20554;-68
2022/03/30 09:11:40;;;;;;;17.40;11.67;;;13.10;99.90;;;;;;5036055;28;20401;-68
2022/03/30 09:14:07;;;;;;;21.47;11.83;;;13.20;99.90;;;;;;5034307;28;20965;-68
2022/03/30 09:16:45;;;;;;;17.30;11.97;;;13.10;99.90;;;;;;5033120;28;20460;-68
2022/03/30 09:19:13;;;;;;;19.90;12.70;;;13.30;99.90;;;;;;5026299;28;20448;-68
2022/03/30 09:21:46;;;;;;;18.10;12.33;;;13.20;99.90;;;;;;5035756;28;20404;-68
2022/03/30 09:24:15;;;;;;;21.40;12.50;;;13.20;99.90;;;;;;5036765;28;20441;-68
2022/03/30 09:26:42;;;;;;;23.53;12.30;;;13.30;99.90;;;;;;5035864;28;20408;-69
2022/03/30 09:29:09;;;;;;;17.93;11.93;;;13.20;99.90;;;;;;5035723;28;20489;-69
2022/03/30 09:31:36;;;;;;;17.27;12.83;;;13.20;99.90;;;;;;5035770;28;20459;-68
2022/03/30 09:34:06;;;;;;;16.73;11.70;;;13.10;99.90;;;;;;5035142;28;20481;-67
2022/03/30 09:36:34;;;;;;;20.30;12.10;;;13.10;99.90;;;;;;5035779;28;20795;-68
2022/03/30 09:39:00;;;;;;;17.10;11.00;;;13.20;99.90;;;;;;5035371;28;20480;-68
2022/03/30 09:41:25;;;;;;;22.50;12.30;;;13.10;99.90;;;;;;5035886;28;20402;-68
2022/03/30 09:44:11;;;;;;;21.67;12.30;;;13.10;99.90;;;;;;5035219;28;20283;-68
2022/03/30 09:47:06;;;;;;;28.57;13.03;;;13.00;99.90;;;;;;5034090;28;20181;-69
2022/03/30 09:49:37;;;;;;;17.47;11.80;;;13.20;99.90;;;;;;5035001;28;20413;-68
2022/03/30 09:52:23;;;;;;;20.67;11.73;;;13.20;99.90;;;;;;5035204;28;20402;-68
2022/03/30 09:55:00;;;;;;;25.47;12.73;;;13.40;99.90;;;;;;5034769;28;20535;-68
2022/03/30 09:57:36;;;;;;;19.50;12.70;;;13.30;99.90;;;;;;5035065;28;20406;-68
2022/03/30 10:00:08;;;;;;;18.23;12.17;;;13.40;99.90;;;;;;5035122;28;20532;-68
2022/03/30 10:02:36;;;;;;;18.50;11.83;;;13.50;99.90;;;;;;5049968;28;20498;-68
2022/03/30 10:05:04;;;;;;;19.50;11.87;;;13.60;99.90;;;;;;5034689;28;20405;-68
2022/03/30 10:07:30;;;;;;;22.10;11.50;;;13.50;99.90;;;;;;5034946;28;20411;-67
2022/03/30 10:10:00;;;;;;;20.40;12.80;;;13.50;99.90;;;;;;5034753;28;20406;-68
2022/03/30 10:12:27;;;;;;;23.47;13.00;;;13.70;99.90;;;;;;5035276;28;20220;-68
2022/03/30 10:14:54;;;;;;;18.83;13.07;;;13.70;99.90;;;;;;5034626;28;20730;-68
2022/03/30 10:17:20;;;;;;;26.10;12.93;;;13.80;99.90;;;;;;5034931;28;20413;-68
2022/03/30 10:19:46;;;;;;;18.97;11.50;;;13.90;99.90;;;;;;5033369;28;20450;-68
2022/03/30 10:22:46;;;;;;;22.10;12.77;;;14.00;99.90;;;;;;5034430;28;20439;-69
2022/03/30 10:25:48;;;;;;;26.27;13.10;;;14.00;99.90;;;;;;5036218;28;20803;-68
2022/03/30 10:28:45;;;;;;;20.50;12.67;;;14.20;99.90;;;;;;5034480;28;20376;-68
2022/03/30 10:31:12;;;;;;;18.10;12.90;;;14.50;99.90;;;;;;5034465;28;20928;-68
2022/03/30 10:33:44;;;;;;;17.67;11.10;;;14.60;99.90;;;;;;5034213;28;20937;-68
2022/03/30 10:36:26;;;;;;;21.20;11.20;;;14.90;99.90;;;;;;5033915;28;20379;-68
2022/03/30 10:39:16;;;;;;;14.50;10.90;;;14.90;99.90;;;;;;5034280;28;20519;-68
2022/03/30 10:42:08;;;;;;;18.20;12.10;;;15.00;99.90;;;;;;5034082;28;20400;-68
2022/03/30 10:44:40;;;;;;;18.40;11.67;;;15.10;99.90;;;;;;5034076;28;20386;-68
2022/03/30 10:47:12;;;;;;;25.23;12.80;;;14.80;99.90;;;;;;5033909;28;20394;-68
2022/03/30 10:49:59;;;;;;;22.60;12.30;;;14.90;99.90;;;;;;5048334;28;20413;-69
2022/03/30 10:52:34;;;;;;;18.93;12.00;;;14.70;99.90;;;;;;5034261;28;20485;-68
2022/03/30 10:55:14;;;;;;;17.67;13.00;;;14.60;99.90;;;;;;5034949;28;20400;-67
2022/03/30 10:57:49;;;;;;;26.63;13.33;;;14.70;99.90;;;;;;5034022;28;20409;-67
2022/03/30 11:00:22;;;;;;;17.70;12.10;;;14.70;99.90;;;;;;5034233;28;20963;-67
2022/03/30 11:02:49;;;;;;;22.83;13.70;;;14.60;99.90;;;;;;5034259;28;20428;-67
2022/03/30 11:05:24;;;;;;;17.10;11.87;;;14.80;99.90;;;;;;5033505;28;20520;-68
2022/03/30 11:07:50;;;;;;;23.43;14.57;;;14.90;99.90;;;;;;5033731;28;20467;-68
2022/03/30 11:10:49;;;;;;;20.20;13.30;;;14.90;99.90;;;;;;5032453;28;20863;-68
2022/03/30 11:13:23;;;;;;;20.23;14.30;;;14.70;99.90;;;;;;5031756;28;20351;-66
2022/03/30 11:16:01;;;;;;;16.30;12.40;;;14.50;99.90;;;;;;5033541;28;20407;-66
2022/03/30 11:18:28;;;;;;;17.47;13.00;;;14.50;99.90;;;;;;5033363;28;20459;-67
2022/03/30 11:21:09;;;;;;;16.57;11.20;;;14.60;99.90;;;;;;5032736;28;20805;-66
2022/03/30 11:23:36;;;;;;;18.73;11.80;;;14.10;99.90;;;;;;5034013;28;20457;-66
2022/03/30 11:26:02;;;;;;;29.27;12.37;;;13.80;99.90;;;;;;5034471;28;20946;-66
2022/03/30 11:28:38;;;;;;;21.40;12.77;;;13.90;99.90;;;;;;5034453;28;20503;-67
2022/03/30 11:31:17;;;;;;;22.73;12.73;;;14.20;99.90;;;;;;5034377;28;20512;-67
2022/03/30 11:33:43;;;;;;;20.63;12.37;;;14.40;99.90;;;;;;5035036;28;20433;-67
2022/03/30 11:36:09;;;;;;;21.60;14.87;;;14.20;99.90;;;;;;5049506;28;20409;-68
2022/03/30 11:38:39;;;;;;;21.00;13.20;;;13.50;99.90;;;;;;5047621;28;20198;-67
2022/03/30 11:41:07;;;;;;;19.37;14.03;;;13.20;99.90;;;;;;5049307;28;20444;-68
2022/03/30 11:45:12;;;;;;;17.90;12.97;;;13.20;99.90;;;;;;5051121;28;20493;-67
2022/03/30 11:46:30;;;;;;;21.50;14.60;;;13.00;99.90;;;;;;5049632;28;20504;-67
2022/03/30 11:49:03;;;;;;;18.50;12.90;;;13.20;99.90;;;;;;5049156;28;20389;-67
2022/03/30 11:51:30;;;;;;;22.20;12.93;;;13.70;99.90;;;;;;5048399;28;20413;-67
2022/03/30 11:54:15;;;;;;;22.07;15.80;;;13.80;99.90;;;;;;5063781;28;20858;-68
2022/03/30 11:56:42;;;;;;;22.73;14.93;;;13.70;99.90;;;;;;5045722;28;20405;-67
2022/03/30 11:59:08;;;;;;;20.27;14.27;;;13.90;99.90;;;;;;5038830;28;20633;-67
2022/03/30 12:01:35;;;;;;;19.23;16.77;;;13.80;99.90;;;;;;5031745;28;20481;-67
2022/03/30 12:04:02;;;;;;;18.77;14.40;;;14.00;99.90;;;;;;5033276;28;20420;-67
2022/03/30 12:06:27;;;;;;;23.50;15.07;;;14.30;99.90;;;;;;5032358;28;20410;-67
2022/03/30 12:08:53;;;;;;;22.30;14.37;;;14.30;99.90;;;;;;5031470;28;20419;-68
2022/03/30 12:11:20;;;;;;;18.60;14.03;;;14.00;99.90;;;;;;5021835;28;20191;-67
2022/03/30 12:13:57;;;;;;;21.80;16.43;;;13.80;99.90;;;;;;5032806;28;20198;-68
2022/03/30 12:16:24;;;;;;;20.67;15.90;;;13.80;99.90;;;;;;5033228;28;20412;-68
2022/03/30 12:18:52;;;;;;;22.80;17.57;;;13.90;99.90;;;;;;5032985;28;20453;-68
2022/03/30 12:21:23;;;;;;;19.87;14.13;;;14.00;99.90;;;;;;5032529;28;20916;-68
2022/03/30 12:23:53;;;;;;;21.00;16.33;;;14.10;99.90;;;;;;5032805;28;20472;-68
2022/03/30 12:26:18;;;;;;;20.60;16.93;;;14.10;99.90;;;;;;5032675;28;20408;-68
2022/03/30 12:28:44;;;;;;;22.97;17.43;;;13.80;99.90;;;;;;5032783;28;20865;-68
2022/03/30 12:31:10;;;;;;;25.70;18.10;;;13.50;99.90;;;;;;5032601;28;20169;-68
2022/03/30 12:33:47;;;;;;;23.23;17.13;;;13.60;99.90;;;;;;5023582;28;20297;-68
2022/03/30 12:36:17;;;;;;;22.70;17.93;;;13.40;99.90;;;;;;5022571;28;20623;-67
2022/03/30 12:38:42;;;;;;;19.37;17.17;;;13.00;99.90;;;;;;5023103;28;20899;-67
2022/03/30 12:41:08;;;;;;;21.97;16.40;;;13.00;99.90;;;;;;5022996;28;20522;-68